createdAt,value
2023-02-09T00:01:35.121Z,99848.72
2023-02-09T00:04:02.820Z,99846.06
2023-02-09T00:06:30.433Z,99835.22
2023-02-09T00:08:58.991Z,99842.34
2023-02-09T00:11:48.393Z,99843.81
2023-02-09T00:14:18.212Z,99846.47
2023-02-09T00:16:47.055Z,99838.72
2023-02-09T00:19:15.156Z,99835.53
2023-02-09T00:21:42.747Z,99838.59
2023-02-09T00:24:10.720Z,99837.34
2023-02-09T00:26:38.691Z,99828.47
2023-02-09T00:29:06.712Z,99830.88
2023-02-09T00:31:34.278Z,99834.56
2023-02-09T00:34:02.097Z,99838.59
2023-02-09T00:36:29.593Z,99836.88
2023-02-09T00:38:56.971Z,99829.63
2023-02-09T00:41:42.866Z,99828.78
2023-02-09T00:44:11.409Z,99828.38
2023-02-09T00:46:38.806Z,99817.63
2023-02-09T00:49:06.325Z,99814.09
2023-02-09T00:51:33.721Z,99808.78
2023-02-09T00:54:03.303Z,99811.50
2023-02-09T00:56:30.600Z,99804.09
2023-02-09T00:58:57.853Z,99813.66
2023-02-09T01:01:25.820Z,99810.63
2023-02-09T01:03:53.687Z,99801.75
2023-02-09T01:06:21.321Z,99808.09
2023-02-09T01:08:48.652Z,99806.06
2023-02-09T01:11:16.673Z,99814.41
2023-02-09T01:13:44.387Z,99819.91
2023-02-09T01:16:15.320Z,99820.22
2023-02-09T01:18:43.408Z,99817.50
2023-02-09T01:21:21.875Z,99816.34
2023-02-09T01:23:49.373Z,99825.41
2023-02-09T01:26:17.619Z,99822.81
2023-02-09T01:28:44.914Z,99818.72
2023-02-09T01:31:29.164Z,99815.00
2023-02-09T01:33:58.164Z,99812.69
2023-02-09T01:36:28.498Z,99816.28
2023-02-09T01:38:57.397Z,99809.38
2023-02-09T01:41:25.044Z,99802.22
2023-02-09T01:43:55.589Z,99804.53
2023-02-09T01:46:26.106Z,99798.25
2023-02-09T01:49:03.460Z,99802.78
2023-02-09T01:51:35.694Z,99803.91
2023-02-09T01:54:10.840Z,99801.31
2023-02-09T01:56:40.099Z,99797.94
2023-02-09T01:59:08.208Z,99798.31
2023-02-09T02:01:38.152Z,99794.88
2023-02-09T02:04:06.302Z,99788.00
2023-02-09T02:06:33.871Z,99784.88
2023-02-09T02:09:14.616Z,99788.31
2023-02-09T02:11:46.152Z,99788.59
2023-02-09T02:14:33.341Z,99791.81
2023-02-09T02:17:39.419Z,99781.69
2023-02-09T02:20:51.418Z,99778.97
2023-02-09T02:23:43.080Z,99788.91
2023-02-09T02:26:39.092Z,99782.63
2023-02-09T02:29:35.803Z,99779.56
2023-02-09T02:32:30.417Z,99779.50
2023-02-09T02:35:06.886Z,99774.75
2023-02-09T02:38:05.938Z,99767.44
2023-02-09T02:40:54.236Z,99781.09
2023-02-09T02:43:37.961Z,99781.81
2023-02-09T02:46:15.790Z,99780.97
2023-02-09T02:49:04.042Z,99777.97
2023-02-09T02:51:40.247Z,99762.13
2023-02-09T02:54:17.057Z,99763.69
2023-02-09T02:56:50.006Z,99759.84
2023-02-09T02:59:23.336Z,99763.38
2023-02-09T03:01:55.463Z,99773.63
2023-02-09T03:04:23.362Z,99766.88
2023-02-09T03:06:50.653Z,99769.66
2023-02-09T03:09:18.610Z,99767.34
2023-02-09T03:11:48.379Z,99768.72
2023-02-09T03:14:48.224Z,99772.00
2023-02-09T03:17:37.150Z,99781.19
2023-02-09T03:20:17.233Z,99783.84
2023-02-09T03:22:52.647Z,99786.56
2023-02-09T03:25:35.402Z,99783.72
2023-02-09T03:28:08.375Z,99782.66
2023-02-09T03:30:37.114Z,99785.75
2023-02-09T03:33:05.325Z,99783.25
2023-02-09T03:35:39.223Z,99789.44
2023-02-09T03:38:07.136Z,99788.69
2023-02-09T03:40:35.090Z,99780.50
2023-02-09T03:43:02.552Z,99779.13
2023-02-09T03:45:29.817Z,99786.91
2023-02-09T03:47:57.050Z,99795.94
2023-02-09T03:50:24.463Z,99799.16
2023-02-09T03:52:51.693Z,99787.91
2023-02-09T03:55:19.014Z,99798.03
2023-02-09T03:57:46.255Z,99797.59
2023-02-09T04:00:14.236Z,99797.75
2023-02-09T04:02:43.491Z,99796.22
2023-02-09T04:05:10.969Z,99795.44
2023-02-09T04:07:38.641Z,99795.22
2023-02-09T04:10:06.626Z,99792.94
2023-02-09T04:12:33.907Z,99795.75
2023-02-09T04:15:01.137Z,99800.47
2023-02-09T04:17:28.396Z,99800.31
2023-02-09T04:19:57.593Z,99797.91
2023-02-09T04:22:24.893Z,99800.47
2023-02-09T04:24:52.160Z,99808.19
2023-02-09T04:27:19.434Z,99797.72
2023-02-09T04:29:46.684Z,99804.38
2023-02-09T04:32:13.998Z,99809.88
2023-02-09T04:34:41.343Z,99814.50
2023-02-09T04:37:08.669Z,99814.88
2023-02-09T04:39:35.998Z,99812.84
2023-02-09T04:42:03.250Z,99814.50
2023-02-09T04:44:30.599Z,99799.34
2023-02-09T04:46:57.852Z,99803.50
2023-02-09T04:49:25.107Z,99798.13
2023-02-09T04:51:52.365Z,99806.25
2023-02-09T04:54:19.618Z,99807.78
2023-02-09T04:56:46.904Z,99813.47
2023-02-09T04:59:46.616Z,99805.88
2023-02-09T05:02:13.951Z,99809.53
2023-02-09T05:04:41.272Z,99804.97
2023-02-09T05:07:08.598Z,99794.72
2023-02-09T05:09:35.863Z,99803.28
2023-02-09T05:12:03.489Z,99801.47
2023-02-09T05:14:30.797Z,99803.72
2023-02-09T05:16:58.323Z,99801.19
2023-02-09T05:19:25.607Z,99798.53
2023-02-09T05:21:52.878Z,99793.94
2023-02-09T05:24:20.285Z,99789.53
2023-02-09T05:26:47.583Z,99789.97
2023-02-09T05:29:14.878Z,99787.22
2023-02-09T05:31:42.568Z,99783.22
2023-02-09T05:34:10.107Z,99785.03
2023-02-09T05:36:37.414Z,99780.69
2023-02-09T05:39:04.677Z,99774.28
2023-02-09T05:41:50.564Z,99768.97
2023-02-09T05:44:17.836Z,99765.66
2023-02-09T05:46:45.138Z,99761.31
2023-02-09T05:49:12.477Z,99759.22
2023-02-09T05:51:39.740Z,99762.44
2023-02-09T05:54:07.131Z,99761.66
2023-02-09T05:56:35.568Z,99767.78
2023-02-09T05:59:04.640Z,99763.16
2023-02-09T06:01:32.170Z,99766.75
2023-02-09T06:03:59.437Z,99763.63
2023-02-09T06:06:26.738Z,99767.78
2023-02-09T06:08:54.061Z,99779.00
2023-02-09T06:11:21.393Z,99770.59
2023-02-09T06:13:49.179Z,99781.97
2023-02-09T06:16:16.433Z,99781.97
2023-02-09T06:18:43.724Z,99794.16
2023-02-09T06:21:12.022Z,99784.63
2023-02-09T06:23:39.559Z,99787.41
2023-02-09T06:26:12.992Z,99799.22
2023-02-09T06:28:40.559Z,99794.16
2023-02-09T06:31:08.595Z,99791.22
2023-02-09T06:33:36.982Z,99787.47
2023-02-09T06:36:05.884Z,99794.94
2023-02-09T06:38:34.655Z,99803.56
2023-02-09T06:41:01.989Z,99806.25
2023-02-09T06:43:29.449Z,99813.78
2023-02-09T06:45:57.247Z,99818.41
2023-02-09T06:48:24.575Z,99819.66
2023-02-09T06:50:52.282Z,99821.78
2023-02-09T06:53:19.744Z,99830.03
2023-02-09T06:55:47.106Z,99832.13
2023-02-09T06:58:14.353Z,99842.16
2023-02-09T07:00:41.592Z,99837.94
2023-02-09T07:03:08.832Z,99838.06
2023-02-09T07:05:36.289Z,99845.97
2023-02-09T07:08:03.645Z,99839.91
2023-02-09T07:10:30.996Z,99846.91
2023-02-09T07:12:58.961Z,99851.25
2023-02-09T07:15:26.253Z,99847.31
2023-02-09T07:17:53.491Z,99846.81
2023-02-09T07:20:20.852Z,99851.09
2023-02-09T07:22:48.192Z,99854.88
2023-02-09T07:25:15.465Z,99851.84
2023-02-09T07:27:45.806Z,99851.94
2023-02-09T07:30:13.560Z,99856.94
2023-02-09T07:32:42.089Z,99865.69
2023-02-09T07:35:09.380Z,99856.94
2023-02-09T07:37:37.080Z,99855.75
2023-02-09T07:40:04.549Z,99858.97
2023-02-09T07:42:31.813Z,99860.56
2023-02-09T07:45:02.657Z,99857.00
2023-02-09T07:47:29.983Z,99861.50
2023-02-09T07:49:57.267Z,99858.06
2023-02-09T07:52:24.814Z,99854.91
2023-02-09T07:54:52.110Z,99857.94
2023-02-09T07:57:19.459Z,99872.16
2023-02-09T07:59:46.715Z,99861.78
2023-02-09T08:02:18.924Z,99862.06
2023-02-09T08:04:46.307Z,99871.47
2023-02-09T08:07:13.699Z,99866.53
2023-02-09T08:09:44.873Z,99863.25
2023-02-09T08:12:12.310Z,99862.97
2023-02-09T08:14:44.302Z,99860.13
2023-02-09T08:17:20.738Z,99865.03
2023-02-09T08:20:00.986Z,99872.34
2023-02-09T08:22:31.543Z,99866.56
2023-02-09T08:25:00.974Z,99866.56
2023-02-09T08:27:28.688Z,99864.06
2023-02-09T08:29:55.966Z,99865.84
2023-02-09T08:32:23.274Z,99868.16
2023-02-09T08:34:50.535Z,99863.25
2023-02-09T08:37:17.821Z,99863.75
2023-02-09T08:39:45.581Z,99870.19
2023-02-09T08:42:12.831Z,99863.69
2023-02-09T08:44:40.134Z,99860.31
2023-02-09T08:47:08.687Z,99859.53
2023-02-09T08:49:36.579Z,99861.91
2023-02-09T08:52:04.194Z,99871.75
2023-02-09T08:54:31.467Z,99867.03
2023-02-09T08:56:58.912Z,99870.94
2023-02-09T08:59:26.604Z,99863.94
2023-02-09T09:01:53.933Z,99868.66
2023-02-09T09:04:21.757Z,99875.53
2023-02-09T09:06:49.318Z,99864.53
2023-02-09T09:09:16.570Z,99864.06
2023-02-09T09:11:43.833Z,99861.69
2023-02-09T09:14:11.117Z,99855.84
2023-02-09T09:16:38.443Z,99865.91
2023-02-09T09:19:05.776Z,99857.97
2023-02-09T09:21:33.717Z,99866.66
2023-02-09T09:24:00.963Z,99868.56
2023-02-09T09:26:28.491Z,99869.94
2023-02-09T09:28:55.806Z,99870.34
2023-02-09T09:31:23.469Z,99864.59
2023-02-09T09:33:50.811Z,99864.22
2023-02-09T09:36:19.225Z,99870.94
2023-02-09T09:38:46.550Z,99870.66
2023-02-09T09:41:33.051Z,99866.97
2023-02-09T09:44:01.379Z,99870.66
2023-02-09T09:46:42.098Z,99884.56
2023-02-09T09:49:23.307Z,99873.16
2023-02-09T09:52:00.483Z,99873.94
2023-02-09T09:54:30.350Z,99886.69
2023-02-09T09:56:57.989Z,99886.69
2023-02-09T09:59:30.742Z,99881.63
2023-02-09T10:02:00.464Z,99888.84
2023-02-09T10:04:29.384Z,99889.09
2023-02-09T10:07:10.580Z,99888.75
2023-02-09T10:09:56.717Z,99884.16
2023-02-09T10:12:38.144Z,99891.81
2023-02-09T10:15:33.300Z,99886.09
2023-02-09T10:18:01.404Z,99890.97
2023-02-09T10:20:50.802Z,99891.97
2023-02-09T10:23:21.125Z,99885.88
2023-02-09T10:26:08.240Z,99884.03
2023-02-09T10:28:42.732Z,99882.88
2023-02-09T10:31:26.274Z,99880.75
2023-02-09T10:34:14.238Z,99873.16
2023-02-09T10:36:49.130Z,99875.81
2023-02-09T10:39:21.692Z,99870.56
2023-02-09T10:41:52.642Z,99872.44
2023-02-09T10:44:27.768Z,99872.03
2023-02-09T10:47:19.734Z,99869.91
2023-02-09T10:50:11.400Z,99869.06
2023-02-09T10:52:45.227Z,99870.56
2023-02-09T10:55:25.895Z,99864.56
2023-02-09T10:58:14.541Z,99859.00
2023-02-09T11:00:54.009Z,99856.38
2023-02-09T11:03:27.077Z,99858.75
2023-02-09T11:06:15.838Z,99859.41
2023-02-09T11:08:56.741Z,99853.88
2023-02-09T11:11:39.124Z,99849.72
2023-02-09T11:14:15.407Z,99850.31
2023-02-09T11:16:48.051Z,99844.31
2023-02-09T11:19:40.112Z,99847.16
2023-02-09T11:22:14.960Z,99846.41
2023-02-09T11:25:05.115Z,99844.41
2023-02-09T11:28:23.226Z,99838.41
2023-02-09T11:31:21.799Z,99839.69
2023-02-09T11:33:52.914Z,99832.56
2023-02-09T11:36:44.344Z,99829.69
2023-02-09T11:39:24.033Z,99829.28
2023-02-09T11:42:17.622Z,99829.91
2023-02-09T11:45:01.016Z,99811.56
2023-02-09T11:47:56.129Z,99797.56
2023-02-09T11:50:48.184Z,99794.28
2023-02-09T11:53:28.461Z,99762.00
2023-02-09T11:56:00.461Z,99753.94
2023-02-09T11:58:57.532Z,99753.28
2023-02-09T12:01:52.061Z,99753.44
2023-02-09T12:04:41.292Z,99755.56
2023-02-09T12:07:36.325Z,99737.97
2023-02-09T12:10:30.878Z,99742.47
2023-02-09T12:13:19.574Z,99745.25
2023-02-09T12:15:53.920Z,99740.31
2023-02-09T12:18:30.936Z,99734.16
2023-02-09T12:21:03.682Z,99736.84
2023-02-09T12:23:38.544Z,99747.53
2023-02-09T12:26:11.842Z,99740.53
2023-02-09T12:29:03.524Z,99735.09
2023-02-09T12:31:52.590Z,99738.66
2023-02-09T12:34:43.405Z,99723.50
2023-02-09T12:37:13.755Z,99733.91
2023-02-09T12:40:18.201Z,99724.69
2023-02-09T12:42:51.473Z,99717.00
2023-02-09T12:45:36.834Z,99721.38
2023-02-09T12:48:10.101Z,99726.00
2023-02-09T12:50:43.592Z,99737.13
2023-02-09T12:53:22.789Z,99733.41
2023-02-09T12:56:01.050Z,99726.75
2023-02-09T12:59:06.572Z,99721.13
2023-02-09T13:02:08.063Z,99722.47
2023-02-09T13:04:49.222Z,99731.91
2023-02-09T13:07:44.130Z,99729.25
2023-02-09T13:10:30.923Z,99722.44
2023-02-09T13:13:13.416Z,99732.69
2023-02-09T13:15:59.026Z,99721.09
2023-02-09T13:18:32.350Z,99719.56
2023-02-09T13:21:20.987Z,99714.56
2023-02-09T13:24:10.755Z,99710.94
2023-02-09T13:26:54.776Z,99717.16
2023-02-09T13:29:26.886Z,99707.31
2023-02-09T13:32:18.433Z,99704.59
2023-02-09T13:34:58.694Z,99716.72
2023-02-09T13:37:48.126Z,99706.72
2023-02-09T13:40:19.698Z,99717.03
2023-02-09T13:43:13.199Z,99732.63
2023-02-09T13:45:51.594Z,99734.19
2023-02-09T13:48:38.860Z,99731.97
2023-02-09T13:51:18.899Z,99737.69
2023-02-09T13:54:00.724Z,99738.38
2023-02-09T13:56:28.602Z,99721.78
2023-02-09T13:58:56.601Z,99725.53
2023-02-09T14:01:30.489Z,99719.19
2023-02-09T14:04:28.888Z,99743.28
2023-02-09T14:07:04.732Z,99742.22
2023-02-09T14:09:49.560Z,99738.22
2023-02-09T14:12:51.537Z,99733.41
2023-02-09T14:15:51.672Z,99739.13
2023-02-09T14:18:23.122Z,99735.88
2023-02-09T14:21:02.864Z,99739.06
2023-02-09T14:23:34.899Z,99746.91
2023-02-09T14:26:25.625Z,99742.72
2023-02-09T14:29:04.212Z,99730.28
2023-02-09T14:31:33.177Z,99743.34
2023-02-09T14:34:00.602Z,99740.72
2023-02-09T14:36:35.507Z,99746.72
2023-02-09T14:39:16.679Z,99748.88
2023-02-09T14:42:11.389Z,99756.06
2023-02-09T14:44:57.334Z,99761.72
2023-02-09T14:47:40.990Z,99766.44
2023-02-09T14:50:14.196Z,99770.00
2023-02-09T14:52:46.734Z,99769.34
2023-02-09T14:55:28.640Z,99777.81
2023-02-09T14:57:55.933Z,99777.41
2023-02-09T15:00:30.279Z,99779.72
2023-02-09T15:03:00.126Z,99783.50
2023-02-09T15:05:27.657Z,99781.41
2023-02-09T15:07:59.453Z,99780.25
2023-02-09T15:10:30.184Z,99776.16
2023-02-09T15:12:58.433Z,99784.56
2023-02-09T15:15:26.664Z,99783.06
2023-02-09T15:17:55.427Z,99785.00
2023-02-09T15:20:28.696Z,99785.78
2023-02-09T15:22:56.399Z,99788.31
2023-02-09T15:25:25.063Z,99792.94
2023-02-09T15:27:57.660Z,99790.75
2023-02-09T15:30:34.445Z,99788.97
2023-02-09T15:33:01.989Z,99795.72
2023-02-09T15:35:29.826Z,99797.19
2023-02-09T15:38:00.131Z,99790.97
2023-02-09T15:40:51.025Z,99803.66
2023-02-09T15:43:39.578Z,99793.88
2023-02-09T15:46:07.464Z,99802.16
2023-02-09T15:48:35.080Z,99812.69
2023-02-09T15:51:02.649Z,99814.50
2023-02-09T15:53:31.990Z,99816.97
2023-02-09T15:55:59.369Z,99819.44
2023-02-09T15:58:35.378Z,99813.97
2023-02-09T16:01:05.225Z,99816.03
2023-02-09T16:03:32.919Z,99837.47
2023-02-09T16:06:03.124Z,99829.44
2023-02-09T16:08:35.564Z,99829.09
2023-02-09T16:11:02.708Z,99829.72
2023-02-09T16:13:29.999Z,99836.06
2023-02-09T16:16:08.000Z,99837.28
2023-02-09T16:18:42.402Z,99843.66
2023-02-09T16:21:25.534Z,99842.78
2023-02-09T16:23:56.347Z,99847.88
2023-02-09T16:26:24.406Z,99841.19
2023-02-09T16:28:52.302Z,99838.66
2023-02-09T16:31:19.866Z,99846.78
2023-02-09T16:33:47.788Z,99847.34
2023-02-09T16:36:17.883Z,99852.16
2023-02-09T16:38:45.748Z,99858.53
2023-02-09T16:41:54.414Z,99853.91
2023-02-09T16:44:24.069Z,99850.97
2023-02-09T16:46:55.982Z,99861.69
2023-02-09T16:49:35.525Z,99862.75
2023-02-09T16:52:20.821Z,99866.69
2023-02-09T16:54:53.486Z,99860.78
2023-02-09T16:57:25.302Z,99856.59
2023-02-09T16:59:53.888Z,99864.00
2023-02-09T17:02:28.960Z,99865.69
2023-02-09T17:04:57.952Z,99860.69
2023-02-09T17:07:30.474Z,99868.47
2023-02-09T17:10:00.065Z,99877.56
2023-02-09T17:12:27.592Z,99877.56
2023-02-09T17:14:54.981Z,99884.00
2023-02-09T17:17:22.905Z,99883.91
2023-02-09T17:19:51.153Z,99891.94
2023-02-09T17:22:19.209Z,99894.19
2023-02-09T17:24:49.934Z,99899.31
2023-02-09T17:27:17.508Z,99894.00
2023-02-09T17:29:44.880Z,99896.13
2023-02-09T17:32:15.309Z,99906.50
2023-02-09T17:34:43.256Z,99911.38
2023-02-09T17:37:14.491Z,99911.00
2023-02-09T17:39:41.919Z,99911.34
2023-02-09T17:42:21.736Z,99911.16
2023-02-09T17:44:50.714Z,99915.09
2023-02-09T17:47:19.830Z,99919.41
2023-02-09T17:49:47.179Z,99914.78
2023-02-09T17:52:19.555Z,99908.16
2023-02-09T17:54:46.491Z,99906.56
2023-02-09T17:57:16.205Z,99910.41
2023-02-09T17:59:43.969Z,99918.50
2023-02-09T18:02:19.691Z,99913.59
2023-02-09T18:04:47.118Z,99914.13
2023-02-09T18:07:20.087Z,99903.94
2023-02-09T18:09:47.534Z,99907.75
2023-02-09T18:12:20.876Z,99920.66
2023-02-09T18:14:48.462Z,99913.59
2023-02-09T18:17:16.561Z,99917.09
2023-02-09T18:19:43.810Z,99920.75
2023-02-09T18:22:16.848Z,99903.50
2023-02-09T18:24:44.239Z,99911.97
2023-02-09T18:27:18.454Z,99912.47
2023-02-09T18:29:45.882Z,99923.03
2023-02-09T18:32:16.785Z,99925.56
2023-02-09T18:34:44.269Z,99925.75
2023-02-09T18:37:11.579Z,99927.06
2023-02-09T18:39:46.205Z,99930.78
2023-02-09T18:42:15.294Z,99933.66
2023-02-09T18:44:43.015Z,99943.53
2023-02-09T18:47:10.804Z,99960.47
2023-02-09T18:49:38.628Z,99954.44
2023-02-09T18:52:06.295Z,99949.41
2023-02-09T18:54:33.641Z,99960.97
2023-02-09T18:57:01.045Z,99964.16
2023-02-09T18:59:32.535Z,99961.81
2023-02-09T19:02:00.165Z,99975.44
2023-02-09T19:04:27.516Z,99971.22
2023-02-09T19:06:54.808Z,99973.66
2023-02-09T19:09:22.256Z,99983.53
2023-02-09T19:11:49.501Z,99984.09
2023-02-09T19:14:35.455Z,99985.06
2023-02-09T19:17:03.134Z,99988.75
2023-02-09T19:19:30.461Z,99998.50
2023-02-09T19:22:00.054Z,100000.38
2023-02-09T19:24:28.263Z,100003.81
2023-02-09T19:26:55.967Z,100004.69
2023-02-09T19:29:28.563Z,99997.66
2023-02-09T19:31:56.217Z,99999.88
2023-02-09T19:34:24.220Z,99999.00
2023-02-09T19:36:53.790Z,99997.91
2023-02-09T19:39:21.095Z,99999.03
2023-02-09T19:41:49.075Z,99993.78
2023-02-09T19:44:16.527Z,99995.03
2023-02-09T19:46:43.958Z,100003.00
2023-02-09T19:49:11.292Z,99992.16
2023-02-09T19:51:38.680Z,99991.78
2023-02-09T19:54:06.248Z,99995.47
2023-02-09T19:56:33.653Z,99991.19
2023-02-09T19:59:01.316Z,99996.56
2023-02-09T20:01:29.610Z,99992.28
2023-02-09T20:03:57.446Z,99998.34
2023-02-09T20:06:25.026Z,99995.34
2023-02-09T20:08:52.276Z,99998.09
2023-02-09T20:11:20.935Z,100003.88
2023-02-09T20:13:52.949Z,100008.34
2023-02-09T20:16:23.142Z,100011.44
2023-02-09T20:18:51.071Z,100009.03
2023-02-09T20:21:19.930Z,100014.56
2023-02-09T20:23:47.951Z,100014.84
2023-02-09T20:26:18.551Z,100009.84
2023-02-09T20:28:45.893Z,100012.25
2023-02-09T20:31:15.667Z,100015.78
2023-02-09T20:33:43.404Z,100006.84
2023-02-09T20:36:10.989Z,100019.59
2023-02-09T20:38:38.444Z,100013.13
2023-02-09T20:41:23.462Z,100006.75
2023-02-09T20:44:09.286Z,100015.66
2023-02-09T20:46:57.632Z,100016.03
2023-02-09T20:49:30.993Z,100020.38
2023-02-09T20:51:59.080Z,100028.69
2023-02-09T20:54:27.154Z,100034.06
2023-02-09T20:56:54.456Z,100041.69
2023-02-09T20:59:21.744Z,100047.22
2023-02-09T21:01:49.118Z,100049.84
2023-02-09T21:04:16.523Z,100050.06
2023-02-09T21:06:47.398Z,100053.38
2023-02-09T21:09:26.147Z,100068.69
2023-02-09T21:11:54.645Z,100063.47
2023-02-09T21:14:32.632Z,100058.91
2023-02-09T21:17:08.120Z,100065.78
2023-02-09T21:19:35.576Z,100060.94
2023-02-09T21:22:02.879Z,100068.63
2023-02-09T21:24:30.231Z,100053.50
2023-02-09T21:26:57.598Z,100048.63
2023-02-09T21:29:25.093Z,100062.72
2023-02-09T21:31:52.663Z,100052.28
2023-02-09T21:34:19.974Z,100059.19
2023-02-09T21:36:47.390Z,100062.25
2023-02-09T21:39:15.170Z,100059.38
2023-02-09T21:42:01.075Z,100070.25
2023-02-09T21:44:28.518Z,100076.44
2023-02-09T21:46:55.917Z,100079.44
2023-02-09T21:49:23.434Z,100076.66
2023-02-09T21:51:50.765Z,100076.75
2023-02-09T21:54:18.449Z,100092.00
2023-02-09T21:56:45.972Z,100085.94
2023-02-09T21:59:13.229Z,100083.56
2023-02-09T22:01:43.996Z,100083.50
2023-02-09T22:04:11.393Z,100085.88
2023-02-09T22:06:38.726Z,100084.09
2023-02-09T22:09:06.332Z,100083.78
2023-02-09T22:11:33.647Z,100081.78
2023-02-09T22:14:00.939Z,100089.59
2023-02-09T22:16:29.355Z,100097.75
2023-02-09T22:18:57.252Z,100098.09
2023-02-09T22:21:24.523Z,100105.97
2023-02-09T22:23:54.674Z,100105.47
2023-02-09T22:26:22.212Z,100105.56
2023-02-09T22:28:49.494Z,100104.34
2023-02-09T22:31:18.978Z,100105.50
2023-02-09T22:33:46.421Z,100114.53
2023-02-09T22:36:17.932Z,100113.31
2023-02-09T22:38:45.534Z,100113.59
2023-02-09T22:41:22.445Z,100118.38
2023-02-09T22:43:54.596Z,100129.47
2023-02-09T22:46:27.674Z,100131.22
2023-02-09T22:48:57.767Z,100129.63
2023-02-09T22:51:28.314Z,100130.69
2023-02-09T22:53:57.114Z,100134.41
2023-02-09T22:56:24.825Z,100133.97
2023-02-09T22:58:56.570Z,100137.16
2023-02-09T23:01:24.006Z,100128.41
2023-02-09T23:03:51.732Z,100127.44
2023-02-09T23:06:23.876Z,100127.44
2023-02-09T23:09:00.023Z,100126.41
2023-02-09T23:11:28.292Z,100124.31
2023-02-09T23:14:11.605Z,100138.22
2023-02-09T23:16:41.159Z,100141.47
2023-02-09T23:19:13.648Z,100140.25
2023-02-09T23:21:43.749Z,100150.69
2023-02-09T23:24:12.338Z,100144.28
2023-02-09T23:26:39.706Z,100146.47
2023-02-09T23:29:09.658Z,100142.53
2023-02-09T23:31:37.803Z,100148.72
2023-02-09T23:34:05.134Z,100144.56
2023-02-09T23:36:33.896Z,100148.63
2023-02-09T23:39:04.758Z,100147.22
2023-02-09T23:41:35.199Z,100145.25
2023-02-09T23:44:03.307Z,100151.81
2023-02-09T23:46:30.697Z,100159.16
2023-02-09T23:48:58.380Z,100162.81
2023-02-09T23:51:33.776Z,100162.06
2023-02-09T23:54:04.566Z,100163.72
2023-02-09T23:56:36.864Z,100158.50
2023-02-09T23:59:05.107Z,100158.38
